sensor_id;sensor_type;location;lat;lon;timestamp;temperature;humidity
31046;DHT22;17711;54.018;9.300;2023-06-04T00:00:33;12.10;99.90
31046;DHT22;17711;54.018;9.300;2023-06-04T00:03:02;12.20;99.90
31046;DHT22;17711;54.018;9.300;2023-06-04T00:05:32;12.30;99.90
31046;DHT22;17711;54.018;9.300;2023-06-04T00:08:01;12.10;99.90
31046;DHT22;17711;54.018;9.300;2023-06-04T00:10:30;11.80;99.90
31046;DHT22;17711;54.018;9.300;2023-06-04T00:13:00;11.70;99.90
31046;DHT22;17711;54.018;9.300;2023-06-04T00:15:29;11.80;99.90
31046;DHT22;17711;54.018;9.300;2023-06-04T00:17:58;11.90;99.90
31046;DHT22;17711;54.018;9.300;2023-06-04T00:20:26;11.80;99.90
31046;DHT22;17711;54.018;9.300;2023-06-04T00:22:57;11.60;99.90
31046;DHT22;17711;54.018;9.300;2023-06-04T00:25:26;11.60;99.90
31046;DHT22;17711;54.018;9.300;2023-06-04T00:27:56;11.60;99.90
31046;DHT22;17711;54.018;9.300;2023-06-04T00:30:25;11.70;99.90
31046;DHT22;17711;54.018;9.300;2023-06-04T00:32:54;11.50;99.90
31046;DHT22;17711;54.018;9.300;2023-06-04T00:35:22;11.30;99.90
31046;DHT22;17711;54.018;9.300;2023-06-04T00:37:51;11.20;99.90
31046;DHT22;17711;54.018;9.300;2023-06-04T00:40:21;11.30;99.90
31046;DHT22;17711;54.018;9.300;2023-06-04T00:42:50;11.20;99.90
31046;DHT22;17711;54.018;9.300;2023-06-04T00:45:19;11.30;99.90
31046;DHT22;17711;54.018;9.300;2023-06-04T00:47:53;11.30;99.90
31046;DHT22;17711;54.018;9.300;2023-06-04T00:50:22;11.30;99.90
31046;DHT22;17711;54.018;9.300;2023-06-04T00:52:51;11.30;99.90
31046;DHT22;17711;54.018;9.300;2023-06-04T00:55:22;11.20;99.90
31046;DHT22;17711;54.018;9.300;2023-06-04T00:57:50;11.00;99.90
31046;DHT22;17711;54.018;9.300;2023-06-04T01:00:19;10.80;99.90
31046;DHT22;17711;54.018;9.300;2023-06-04T01:02:49;11.00;99.90
31046;DHT22;17711;54.018;9.300;2023-06-04T01:05:26;11.20;99.90
31046;DHT22;17711;54.018;9.300;2023-06-04T01:08:01;11.50;99.90
31046;DHT22;17711;54.018;9.300;2023-06-04T01:10:32;11.30;99.90
31046;DHT22;17711;54.018;9.300;2023-06-04T01:13:01;11.10;99.90
31046;DHT22;17711;54.018;9.300;2023-06-04T01:15:30;10.90;99.90
31046;DHT22;17711;54.018;9.300;2023-06-04T01:17:59;10.80;99.90
31046;DHT22;17711;54.018;9.300;2023-06-04T01:20:36;10.80;99.90
31046;DHT22;17711;54.018;9.300;2023-06-04T01:23:15;10.70;99.90
31046;DHT22;17711;54.018;9.300;2023-06-04T01:25:47;10.70;99.90
31046;DHT22;17711;54.018;9.300;2023-06-04T01:28:17;10.70;99.90
31046;DHT22;17711;54.018;9.300;2023-06-04T01:30:48;10.90;99.90
31046;DHT22;17711;54.018;9.300;2023-06-04T01:33:19;11.10;99.90
31046;DHT22;17711;54.018;9.300;2023-06-04T01:35:48;11.10;99.90
31046;DHT22;17711;54.018;9.300;2023-06-04T01:38:17;11.10;99.90
31046;DHT22;17711;54.018;9.300;2023-06-04T01:40:47;11.00;99.90
31046;DHT22;17711;54.018;9.300;2023-06-04T01:43:16;11.00;99.90
31046;DHT22;17711;54.018;9.300;2023-06-04T01:45:44;11.10;99.90
31046;DHT22;17711;54.018;9.300;2023-06-04T01:48:14;11.10;99.90
31046;DHT22;17711;54.018;9.300;2023-06-04T01:50:42;11.10;99.90
31046;DHT22;17711;54.018;9.300;2023-06-04T01:53:11;11.10;99.90
31046;DHT22;17711;54.018;9.300;2023-06-04T01:55:40;11.00;99.90
31046;DHT22;17711;54.018;9.300;2023-06-04T01:58:10;11.00;99.90
31046;DHT22;17711;54.018;9.300;2023-06-04T02:00:39;11.00;99.90
31046;DHT22;17711;54.018;9.300;2023-06-04T02:03:07;10.80;99.90
31046;DHT22;17711;54.018;9.300;2023-06-04T02:05:37;10.70;99.90
31046;DHT22;17711;54.018;9.300;2023-06-04T02:08:06;10.50;99.90
31046;DHT22;17711;54.018;9.300;2023-06-04T02:10:36;10.40;99.90
31046;DHT22;17711;54.018;9.300;2023-06-04T02:13:07;10.60;99.90
31046;DHT22;17711;54.018;9.300;2023-06-04T02:15:37;10.60;99.90
31046;DHT22;17711;54.018;9.300;2023-06-04T02:18:13;10.60;99.90
31046;DHT22;17711;54.018;9.300;2023-06-04T02:20:46;10.50;99.90
31046;DHT22;17711;54.018;9.300;2023-06-04T02:23:16;10.40;99.90
31046;DHT22;17711;54.018;9.300;2023-06-04T02:25:45;10.30;99.90
31046;DHT22;17711;54.018;9.300;2023-06-04T02:28:15;10.30;99.90
31046;DHT22;17711;54.018;9.300;2023-06-04T02:30:45;10.30;99.90
31046;DHT22;17711;54.018;9.300;2023-06-04T02:33:14;10.50;99.90
31046;DHT22;17711;54.018;9.300;2023-06-04T02:35:44;10.60;99.90
31046;DHT22;17711;54.018;9.300;2023-06-04T02:38:13;10.70;99.90
31046;DHT22;17711;54.018;9.300;2023-06-04T02:40:42;10.70;99.90
31046;DHT22;17711;54.018;9.300;2023-06-04T02:43:11;10.70;99.90
31046;DHT22;17711;54.018;9.300;2023-06-04T02:45:40;10.70;99.90
31046;DHT22;17711;54.018;9.300;2023-06-04T02:48:10;10.50;99.90
31046;DHT22;17711;54.018;9.300;2023-06-04T02:50:38;10.30;99.90
31046;DHT22;17711;54.018;9.300;2023-06-04T02:53:09;10.20;99.90
31046;DHT22;17711;54.018;9.300;2023-06-04T02:55:38;10.30;99.90
31046;DHT22;17711;54.018;9.300;2023-06-04T02:58:09;10.20;99.90
31046;DHT22;17711;54.018;9.300;2023-06-04T03:04:20;10.20;99.90
31046;DHT22;17711;54.018;9.300;2023-06-04T03:06:49;10.20;99.90
31046;DHT22;17711;54.018;9.300;2023-06-04T03:09:25;10.00;99.90
31046;DHT22;17711;54.018;9.300;2023-06-04T03:11:54;10.10;99.90
31046;DHT22;17711;54.018;9.300;2023-06-04T03:14:23;10.10;99.90
31046;DHT22;17711;54.018;9.300;2023-06-04T03:17:00;10.10;99.90
31046;DHT22;17711;54.018;9.300;2023-06-04T03:19:37;10.10;99.90
31046;DHT22;17711;54.018;9.300;2023-06-04T03:22:08;10.00;99.90
31046;DHT22;17711;54.018;9.300;2023-06-04T03:24:39;9.90;99.90
31046;DHT22;17711;54.018;9.300;2023-06-04T03:27:09;10.10;99.90
31046;DHT22;17711;54.018;9.300;2023-06-04T03:29:37;10.20;99.90
31046;DHT22;17711;54.018;9.300;2023-06-04T03:32:07;10.20;99.90
31046;DHT22;17711;54.018;9.300;2023-06-04T03:34:38;10.20;99.90
31046;DHT22;17711;54.018;9.300;2023-06-04T03:37:07;10.30;99.90
31046;DHT22;17711;54.018;9.300;2023-06-04T03:39:36;10.30;99.90
31046;DHT22;17711;54.018;9.300;2023-06-04T03:42:05;10.20;99.90
31046;DHT22;17711;54.018;9.300;2023-06-04T03:44:34;10.20;99.90
31046;DHT22;17711;54.018;9.300;2023-06-04T03:47:04;10.30;99.90
31046;DHT22;17711;54.018;9.300;2023-06-04T03:49:33;10.20;99.90
31046;DHT22;17711;54.018;9.300;2023-06-04T03:52:04;10.20;99.90
31046;DHT22;17711;54.018;9.300;2023-06-04T03:54:33;10.10;99.90
31046;DHT22;17711;54.018;9.300;2023-06-04T03:57:02;10.00;99.90
31046;DHT22;17711;54.018;9.300;2023-06-04T03:59:31;10.10;99.90
31046;DHT22;17711;54.018;9.300;2023-06-04T04:02:00;10.10;99.90
31046;DHT22;17711;54.018;9.300;2023-06-04T04:04:28;10.10;99.90
31046;DHT22;17711;54.018;9.300;2023-06-04T04:06:57;10.10;99.90
31046;DHT22;17711;54.018;9.300;2023-06-04T04:09:28;10.10;99.90
31046;DHT22;17711;54.018;9.300;2023-06-04T04:11:56;10.20;99.90
31046;DHT22;17711;54.018;9.300;2023-06-04T04:14:28;10.30;99.90
31046;DHT22;17711;54.018;9.300;2023-06-04T04:16:57;10.30;99.90
31046;DHT22;17711;54.018;9.300;2023-06-04T04:19:26;10.40;99.90
31046;DHT22;17711;54.018;9.300;2023-06-04T04:21:56;10.50;99.90
31046;DHT22;17711;54.018;9.300;2023-06-04T04:24:27;10.60;99.90
31046;DHT22;17711;54.018;9.300;2023-06-04T04:26:56;10.70;99.90
31046;DHT22;17711;54.018;9.300;2023-06-04T04:29:26;10.80;99.90
31046;DHT22;17711;54.018;9.300;2023-06-04T04:31:55;10.80;99.90
31046;DHT22;17711;54.018;9.300;2023-06-04T04:34:26;11.00;99.90
31046;DHT22;17711;54.018;9.300;2023-06-04T04:36:55;11.10;99.90
31046;DHT22;17711;54.018;9.300;2023-06-04T04:39:24;11.20;99.90
31046;DHT22;17711;54.018;9.300;2023-06-04T04:41:54;11.30;99.90
31046;DHT22;17711;54.018;9.300;2023-06-04T04:44:23;11.40;99.90
31046;DHT22;17711;54.018;9.300;2023-06-04T04:46:51;11.40;99.90
31046;DHT22;17711;54.018;9.300;2023-06-04T04:49:20;11.50;99.90
31046;DHT22;17711;54.018;9.300;2023-06-04T04:51:49;11.60;99.90
31046;DHT22;17711;54.018;9.300;2023-06-04T04:54:19;11.60;99.90
31046;DHT22;17711;54.018;9.300;2023-06-04T04:56:48;11.70;99.90
31046;DHT22;17711;54.018;9.300;2023-06-04T04:59:39;11.70;99.90
31046;DHT22;17711;54.018;9.300;2023-06-04T05:02:08;11.70;99.90
31046;DHT22;17711;54.018;9.300;2023-06-04T05:04:37;11.80;99.90
31046;DHT22;17711;54.018;9.300;2023-06-04T05:07:05;11.80;99.90
31046;DHT22;17711;54.018;9.300;2023-06-04T05:09:34;11.90;99.90
31046;DHT22;17711;54.018;9.300;2023-06-04T05:12:03;11.90;99.90
31046;DHT22;17711;54.018;9.300;2023-06-04T05:14:32;12.00;99.90
31046;DHT22;17711;54.018;9.300;2023-06-04T05:17:04;12.00;99.90
31046;DHT22;17711;54.018;9.300;2023-06-04T05:19:33;12.00;99.90
31046;DHT22;17711;54.018;9.300;2023-06-04T05:22:02;12.00;99.90
31046;DHT22;17711;54.018;9.300;2023-06-04T05:24:31;12.10;99.90
31046;DHT22;17711;54.018;9.300;2023-06-04T05:27:00;12.20;99.90
31046;DHT22;17711;54.018;9.300;2023-06-04T05:29:30;12.20;99.90
31046;DHT22;17711;54.018;9.300;2023-06-04T05:31:59;12.40;99.90
31046;DHT22;17711;54.018;9.300;2023-06-04T05:34:29;12.50;99.90
31046;DHT22;17711;54.018;9.300;2023-06-04T05:36:58;12.60;99.90
31046;DHT22;17711;54.018;9.300;2023-06-04T05:39:26;12.60;99.90
31046;DHT22;17711;54.018;9.300;2023-06-04T05:41:55;12.70;99.90
31046;DHT22;17711;54.018;9.300;2023-06-04T05:44:25;12.70;99.90
31046;DHT22;17711;54.018;9.300;2023-06-04T05:46:53;12.70;99.90
31046;DHT22;17711;54.018;9.300;2023-06-04T05:49:22;12.90;99.90
31046;DHT22;17711;54.018;9.300;2023-06-04T05:51:53;12.90;99.90
31046;DHT22;17711;54.018;9.300;2023-06-04T05:54:22;13.10;99.90
31046;DHT22;17711;54.018;9.300;2023-06-04T05:56:50;13.20;99.90
31046;DHT22;17711;54.018;9.300;2023-06-04T05:59:19;13.30;99.90
31046;DHT22;17711;54.018;9.300;2023-06-04T06:04:16;13.50;99.90
31046;DHT22;17711;54.018;9.300;2023-06-04T06:06:45;13.60;99.90
31046;DHT22;17711;54.018;9.300;2023-06-04T06:09:18;13.70;99.90
31046;DHT22;17711;54.018;9.300;2023-06-04T06:11:46;13.70;99.90
31046;DHT22;17711;54.018;9.300;2023-06-04T06:14:15;13.70;99.90
31046;DHT22;17711;54.018;9.300;2023-06-04T06:16:44;13.80;99.90
31046;DHT22;17711;54.018;9.300;2023-06-04T06:19:12;13.90;99.90
31046;DHT22;17711;54.018;9.300;2023-06-04T06:21:41;13.90;99.90
31046;DHT22;17711;54.018;9.300;2023-06-04T06:24:10;14.00;99.90
31046;DHT22;17711;54.018;9.300;2023-06-04T06:26:40;14.10;99.90
31046;DHT22;17711;54.018;9.300;2023-06-04T06:29:09;14.20;99.90
31046;DHT22;17711;54.018;9.300;2023-06-04T06:31:38;14.20;99.90
31046;DHT22;17711;54.018;9.300;2023-06-04T06:34:07;14.30;99.90
31046;DHT22;17711;54.018;9.300;2023-06-04T06:36:36;14.40;99.90
31046;DHT22;17711;54.018;9.300;2023-06-04T06:39:05;14.40;99.90
31046;DHT22;17711;54.018;9.300;2023-06-04T06:41:34;14.50;99.90
31046;DHT22;17711;54.018;9.300;2023-06-04T06:44:06;14.60;99.90
31046;DHT22;17711;54.018;9.300;2023-06-04T06:46:34;14.60;99.90
31046;DHT22;17711;54.018;9.300;2023-06-04T06:49:03;14.70;99.90
31046;DHT22;17711;54.018;9.300;2023-06-04T06:51:31;14.70;99.90
31046;DHT22;17711;54.018;9.300;2023-06-04T06:54:00;14.80;99.90
31046;DHT22;17711;54.018;9.300;2023-06-04T06:56:29;14.90;99.90
31046;DHT22;17711;54.018;9.300;2023-06-04T06:58:57;15.00;99.90
31046;DHT22;17711;54.018;9.300;2023-06-04T07:01:27;15.10;99.90
31046;DHT22;17711;54.018;9.300;2023-06-04T07:03:56;15.20;99.90
31046;DHT22;17711;54.018;9.300;2023-06-04T07:06:25;15.30;99.90
31046;DHT22;17711;54.018;9.300;2023-06-04T07:08:54;15.30;99.90
31046;DHT22;17711;54.018;9.300;2023-06-04T07:11:22;15.40;99.90
31046;DHT22;17711;54.018;9.300;2023-06-04T07:13:51;15.40;99.90
31046;DHT22;17711;54.018;9.300;2023-06-04T07:16:21;15.50;99.90
31046;DHT22;17711;54.018;9.300;2023-06-04T07:18:52;15.60;99.90
31046;DHT22;17711;54.018;9.300;2023-06-04T07:21:25;15.70;99.90
31046;DHT22;17711;54.018;9.300;2023-06-04T07:23:58;15.80;99.90
31046;DHT22;17711;54.018;9.300;2023-06-04T07:26:41;15.80;99.90
31046;DHT22;17711;54.018;9.300;2023-06-04T07:29:11;15.90;99.90
31046;DHT22;17711;54.018;9.300;2023-06-04T07:31:41;16.00;99.90
31046;DHT22;17711;54.018;9.300;2023-06-04T07:34:13;16.10;99.90
31046;DHT22;17711;54.018;9.300;2023-06-04T07:36:44;16.30;99.90
31046;DHT22;17711;54.018;9.300;2023-06-04T07:39:13;16.40;99.90
31046;DHT22;17711;54.018;9.300;2023-06-04T07:41:44;16.40;99.90
31046;DHT22;17711;54.018;9.300;2023-06-04T07:44:14;16.40;99.90
31046;DHT22;17711;54.018;9.300;2023-06-04T07:46:45;16.60;99.90
31046;DHT22;17711;54.018;9.300;2023-06-04T07:49:18;16.60;99.90
31046;DHT22;17711;54.018;9.300;2023-06-04T07:51:48;16.70;99.90
31046;DHT22;17711;54.018;9.300;2023-06-04T07:54:33;16.90;99.90
31046;DHT22;17711;54.018;9.300;2023-06-04T07:57:04;17.10;99.90
31046;DHT22;17711;54.018;9.300;2023-06-04T07:59:38;17.20;99.90
31046;DHT22;17711;54.018;9.300;2023-06-04T08:02:17;17.20;99.90
31046;DHT22;17711;54.018;9.300;2023-06-04T08:04:56;17.50;99.90
31046;DHT22;17711;54.018;9.300;2023-06-04T08:07:25;18.00;99.90
31046;DHT22;17711;54.018;9.300;2023-06-04T08:09:56;18.50;99.90
31046;DHT22;17711;54.018;9.300;2023-06-04T08:12:25;18.70;99.90
31046;DHT22;17711;54.018;9.300;2023-06-04T08:14:54;19.10;99.90
31046;DHT22;17711;54.018;9.300;2023-06-04T08:17:24;19.80;99.90
31046;DHT22;17711;54.018;9.300;2023-06-04T08:20:01;20.40;99.90
31046;DHT22;17711;54.018;9.300;2023-06-04T08:22:34;20.90;99.90
31046;DHT22;17711;54.018;9.300;2023-06-04T08:25:06;21.40;94.60
31046;DHT22;17711;54.018;9.300;2023-06-04T08:27:38;21.70;99.90
31046;DHT22;17711;54.018;9.300;2023-06-04T08:30:11;21.80;82.90
31046;DHT22;17711;54.018;9.300;2023-06-04T08:32:40;21.70;99.90
31046;DHT22;17711;54.018;9.300;2023-06-04T08:35:12;22.60;99.90
31046;DHT22;17711;54.018;9.300;2023-06-04T08:37:44;24.50;70.00
31046;DHT22;17711;54.018;9.300;2023-06-04T08:40:16;26.20;58.00
31046;DHT22;17711;54.018;9.300;2023-06-04T08:42:50;26.80;53.90
31046;DHT22;17711;54.018;9.300;2023-06-04T08:45:23;27.90;57.30
31046;DHT22;17711;54.018;9.300;2023-06-04T08:47:53;29.30;47.60
31046;DHT22;17711;54.018;9.300;2023-06-04T08:50:25;29.80;38.50
31046;DHT22;17711;54.018;9.300;2023-06-04T08:52:55;29.80;40.40
31046;DHT22;17711;54.018;9.300;2023-06-04T08:55:26;30.60;42.40
31046;DHT22;17711;54.018;9.300;2023-06-04T08:57:54;31.50;39.00
31046;DHT22;17711;54.018;9.300;2023-06-04T09:00:24;32.40;38.00
31046;DHT22;17711;54.018;9.300;2023-06-04T09:02:53;32.70;35.00
31046;DHT22;17711;54.018;9.300;2023-06-04T09:05:25;33.20;34.00
31046;DHT22;17711;54.018;9.300;2023-06-04T09:07:55;33.90;33.60
31046;DHT22;17711;54.018;9.300;2023-06-04T09:10:29;34.40;32.90
31046;DHT22;17711;54.018;9.300;2023-06-04T09:13:01;34.60;31.70
31046;DHT22;17711;54.018;9.300;2023-06-04T09:15:32;34.30;32.10
31046;DHT22;17711;54.018;9.300;2023-06-04T09:18:00;34.80;31.40
31046;DHT22;17711;54.018;9.300;2023-06-04T09:20:30;34.00;28.60
31046;DHT22;17711;54.018;9.300;2023-06-04T09:23:00;34.20;33.00
31046;DHT22;17711;54.018;9.300;2023-06-04T09:25:28;34.70;28.80
31046;DHT22;17711;54.018;9.300;2023-06-04T09:28:05;35.50;29.70
31046;DHT22;17711;54.018;9.300;2023-06-04T09:30:35;35.80;28.00
31046;DHT22;17711;54.018;9.300;2023-06-04T09:33:07;36.10;27.40
31046;DHT22;17711;54.018;9.300;2023-06-04T09:35:37;36.30;28.40
31046;DHT22;17711;54.018;9.300;2023-06-04T09:38:06;36.90;27.80
31046;DHT22;17711;54.018;9.300;2023-06-04T09:40:35;37.20;26.10
31046;DHT22;17711;54.018;9.300;2023-06-04T09:43:05;37.10;26.70
31046;DHT22;17711;54.018;9.300;2023-06-04T09:45:34;37.20;27.10
31046;DHT22;17711;54.018;9.300;2023-06-04T09:48:04;37.00;26.10
31046;DHT22;17711;54.018;9.300;2023-06-04T09:50:37;36.90;26.20
31046;DHT22;17711;54.018;9.300;2023-06-04T09:53:15;37.00;26.60
31046;DHT22;17711;54.018;9.300;2023-06-04T09:55:44;37.10;25.80
31046;DHT22;17711;54.018;9.300;2023-06-04T09:58:26;37.30;25.60
31046;DHT22;17711;54.018;9.300;2023-06-04T10:00:56;37.60;25.50
31046;DHT22;17711;54.018;9.300;2023-06-04T10:03:25;37.30;25.30
31046;DHT22;17711;54.018;9.300;2023-06-04T10:06:03;37.60;26.10
31046;DHT22;17711;54.018;9.300;2023-06-04T10:08:33;37.60;25.40
31046;DHT22;17711;54.018;9.300;2023-06-04T10:11:03;37.90;26.00
31046;DHT22;17711;54.018;9.300;2023-06-04T10:13:38;38.10;26.10
31046;DHT22;17711;54.018;9.300;2023-06-04T10:16:11;38.50;24.70
31046;DHT22;17711;54.018;9.300;2023-06-04T10:18:57;38.40;24.50
31046;DHT22;17711;54.018;9.300;2023-06-04T10:21:29;38.20;23.20
31046;DHT22;17711;54.018;9.300;2023-06-04T10:24:02;38.00;25.30
31046;DHT22;17711;54.018;9.300;2023-06-04T10:26:33;37.80;25.80
31046;DHT22;17711;54.018;9.300;2023-06-04T10:29:02;38.00;25.00
31046;DHT22;17711;54.018;9.300;2023-06-04T10:31:31;38.20;24.20
31046;DHT22;17711;54.018;9.300;2023-06-04T10:34:01;38.90;25.60
31046;DHT22;17711;54.018;9.300;2023-06-04T10:36:41;39.10;23.50
31046;DHT22;17711;54.018;9.300;2023-06-04T10:39:10;39.00;23.00
31046;DHT22;17711;54.018;9.300;2023-06-04T10:41:39;37.70;24.70
31046;DHT22;17711;54.018;9.300;2023-06-04T10:44:07;38.20;25.80
31046;DHT22;17711;54.018;9.300;2023-06-04T10:46:40;38.90;25.30
31046;DHT22;17711;54.018;9.300;2023-06-04T10:49:10;39.40;24.40
31046;DHT22;17711;54.018;9.300;2023-06-04T10:51:41;40.00;24.30
31046;DHT22;17711;54.018;9.300;2023-06-04T10:54:22;39.80;22.50
31046;DHT22;17711;54.018;9.300;2023-06-04T10:56:52;40.20;23.00
31046;DHT22;17711;54.018;9.300;2023-06-04T10:59:21;39.20;22.00
31046;DHT22;17711;54.018;9.300;2023-06-04T11:01:51;38.70;23.10
31046;DHT22;17711;54.018;9.300;2023-06-04T11:04:24;39.30;24.20
31046;DHT22;17711;54.018;9.300;2023-06-04T11:07:05;40.00;23.10
31046;DHT22;17711;54.018;9.300;2023-06-04T11:09:36;40.40;20.80
31046;DHT22;17711;54.018;9.300;2023-06-04T11:12:06;39.90;22.00
31046;DHT22;17711;54.018;9.300;2023-06-04T11:14:35;39.60;23.20
31046;DHT22;17711;54.018;9.300;2023-06-04T11:17:09;39.80;23.50
31046;DHT22;17711;54.018;9.300;2023-06-04T11:19:39;39.80;23.40
31046;DHT22;17711;54.018;9.300;2023-06-04T11:22:11;39.70;22.20
31046;DHT22;17711;54.018;9.300;2023-06-04T11:24:40;39.80;24.40
31046;DHT22;17711;54.018;9.300;2023-06-04T11:27:09;40.00;22.40
31046;DHT22;17711;54.018;9.300;2023-06-04T11:29:51;40.10;22.50
31046;DHT22;17711;54.018;9.300;2023-06-04T11:32:23;39.80;20.70
31046;DHT22;17711;54.018;9.300;2023-06-04T11:35:02;39.50;24.00
31046;DHT22;17711;54.018;9.300;2023-06-04T11:37:33;40.10;23.50
31046;DHT22;17711;54.018;9.300;2023-06-04T11:40:03;40.00;23.00
31046;DHT22;17711;54.018;9.300;2023-06-04T11:42:33;39.90;21.20
31046;DHT22;17711;54.018;9.300;2023-06-04T11:45:04;39.70;22.70
31046;DHT22;17711;54.018;9.300;2023-06-04T11:47:32;39.80;22.80
31046;DHT22;17711;54.018;9.300;2023-06-04T11:50:01;39.80;22.90
31046;DHT22;17711;54.018;9.300;2023-06-04T11:52:31;39.60;20.80
31046;DHT22;17711;54.018;9.300;2023-06-04T11:55:01;38.70;22.20
31046;DHT22;17711;54.018;9.300;2023-06-04T11:57:30;38.30;23.20
31046;DHT22;17711;54.018;9.300;2023-06-04T12:00:00;38.40;21.90
31046;DHT22;17711;54.018;9.300;2023-06-04T12:02:30;38.10;23.40
31046;DHT22;17711;54.018;9.300;2023-06-04T12:05:10;38.40;24.30
31046;DHT22;17711;54.018;9.300;2023-06-04T12:07:41;38.70;23.90
31046;DHT22;17711;54.018;9.300;2023-06-04T12:10:11;38.50;22.60
31046;DHT22;17711;54.018;9.300;2023-06-04T12:12:39;38.30;24.90
31046;DHT22;17711;54.018;9.300;2023-06-04T12:15:09;38.60;24.80
31046;DHT22;17711;54.018;9.300;2023-06-04T12:17:49;38.50;22.30
31046;DHT22;17711;54.018;9.300;2023-06-04T12:20:18;37.50;24.20
31046;DHT22;17711;54.018;9.300;2023-06-04T12:22:51;37.70;25.30
31046;DHT22;17711;54.018;9.300;2023-06-04T12:25:25;38.10;24.10
31046;DHT22;17711;54.018;9.300;2023-06-04T12:27:54;37.50;24.20
31046;DHT22;17711;54.018;9.300;2023-06-04T12:30:31;36.80;22.20
31046;DHT22;17711;54.018;9.300;2023-06-04T12:33:02;36.50;25.70
31046;DHT22;17711;54.018;9.300;2023-06-04T12:35:32;37.00;25.90
31046;DHT22;17711;54.018;9.300;2023-06-04T12:38:04;37.20;23.10
31046;DHT22;17711;54.018;9.300;2023-06-04T12:40:36;36.80;24.20
31046;DHT22;17711;54.018;9.300;2023-06-04T12:43:05;36.90;25.50
31046;DHT22;17711;54.018;9.300;2023-06-04T12:45:34;36.40;24.50
31046;DHT22;17711;54.018;9.300;2023-06-04T12:48:03;36.10;25.60
31046;DHT22;17711;54.018;9.300;2023-06-04T12:50:32;36.40;26.40
31046;DHT22;17711;54.018;9.300;2023-06-04T12:53:01;36.40;25.20
31046;DHT22;17711;54.018;9.300;2023-06-04T12:55:31;36.20;25.80
31046;DHT22;17711;54.018;9.300;2023-06-04T12:58:00;36.50;24.80
31046;DHT22;17711;54.018;9.300;2023-06-04T13:00:28;36.50;23.30
31046;DHT22;17711;54.018;9.300;2023-06-04T13:02:57;35.80;24.10
31046;DHT22;17711;54.018;9.300;2023-06-04T13:05:27;35.50;24.40
31046;DHT22;17711;54.018;9.300;2023-06-04T13:07:55;35.50;25.00
31046;DHT22;17711;54.018;9.300;2023-06-04T13:10:25;35.00;23.70
31046;DHT22;17711;54.018;9.300;2023-06-04T13:12:55;34.30;25.80
31046;DHT22;17711;54.018;9.300;2023-06-04T13:15:26;34.20;26.90
31046;DHT22;17711;54.018;9.300;2023-06-04T13:17:54;34.70;27.40
31046;DHT22;17711;54.018;9.300;2023-06-04T13:20:26;35.00;25.90
31046;DHT22;17711;54.018;9.300;2023-06-04T13:22:56;34.40;25.00
31046;DHT22;17711;54.018;9.300;2023-06-04T13:25:25;34.30;25.30
31046;DHT22;17711;54.018;9.300;2023-06-04T13:28:00;33.90;25.00
31046;DHT22;17711;54.018;9.300;2023-06-04T13:30:33;33.60;27.90
31046;DHT22;17711;54.018;9.300;2023-06-04T13:33:04;33.30;26.10
31046;DHT22;17711;54.018;9.300;2023-06-04T13:35:36;33.50;26.50
31046;DHT22;17711;54.018;9.300;2023-06-04T13:38:05;33.10;27.50
31046;DHT22;17711;54.018;9.300;2023-06-04T13:40:34;33.20;28.10
31046;DHT22;17711;54.018;9.300;2023-06-04T13:43:04;33.50;24.80
31046;DHT22;17711;54.018;9.300;2023-06-04T13:45:34;33.10;26.20
31046;DHT22;17711;54.018;9.300;2023-06-04T13:48:03;33.20;27.00
31046;DHT22;17711;54.018;9.300;2023-06-04T13:50:34;32.60;24.70
31046;DHT22;17711;54.018;9.300;2023-06-04T13:53:03;32.20;27.70
31046;DHT22;17711;54.018;9.300;2023-06-04T13:55:32;32.00;26.10
31046;DHT22;17711;54.018;9.300;2023-06-04T13:58:05;31.90;27.10
31046;DHT22;17711;54.018;9.300;2023-06-04T14:00:34;31.80;28.20
31046;DHT22;17711;54.018;9.300;2023-06-04T14:03:03;31.90;28.70
31046;DHT22;17711;54.018;9.300;2023-06-04T14:05:32;31.80;28.40
31046;DHT22;17711;54.018;9.300;2023-06-04T14:08:00;31.60;29.20
31046;DHT22;17711;54.018;9.300;2023-06-04T14:10:30;31.30;28.30
31046;DHT22;17711;54.018;9.300;2023-06-04T14:12:59;30.80;27.30
31046;DHT22;17711;54.018;9.300;2023-06-04T14:15:29;30.30;30.00
31046;DHT22;17711;54.018;9.300;2023-06-04T14:17:59;30.30;30.10
31046;DHT22;17711;54.018;9.300;2023-06-04T14:20:28;30.60;31.50
31046;DHT22;17711;54.018;9.300;2023-06-04T14:22:56;30.80;29.60
31046;DHT22;17711;54.018;9.300;2023-06-04T14:25:26;30.80;27.70
31046;DHT22;17711;54.018;9.300;2023-06-04T14:27:55;30.50;29.40
31046;DHT22;17711;54.018;9.300;2023-06-04T14:30:24;30.30;29.50
31046;DHT22;17711;54.018;9.300;2023-06-04T14:32:54;29.90;33.30
31046;DHT22;17711;54.018;9.300;2023-06-04T14:35:23;30.20;30.30
31046;DHT22;17711;54.018;9.300;2023-06-04T14:37:51;30.20;30.30
31046;DHT22;17711;54.018;9.300;2023-06-04T14:40:20;29.60;30.10
31046;DHT22;17711;54.018;9.300;2023-06-04T14:42:51;29.40;34.60
31046;DHT22;17711;54.018;9.300;2023-06-04T14:45:20;29.50;33.60
31046;DHT22;17711;54.018;9.300;2023-06-04T14:47:49;29.50;30.60
31046;DHT22;17711;54.018;9.300;2023-06-04T14:50:40;29.40;34.70
31046;DHT22;17711;54.018;9.300;2023-06-04T14:53:09;29.50;34.60
31046;DHT22;17711;54.018;9.300;2023-06-04T14:55:37;29.40;35.60
31046;DHT22;17711;54.018;9.300;2023-06-04T14:58:06;29.40;36.40
31046;DHT22;17711;54.018;9.300;2023-06-04T15:00:36;29.50;37.30
31046;DHT22;17711;54.018;9.300;2023-06-04T15:03:05;29.10;36.70
31046;DHT22;17711;54.018;9.300;2023-06-04T15:05:34;29.00;37.60
31046;DHT22;17711;54.018;9.300;2023-06-04T15:08:04;29.10;38.00
31046;DHT22;17711;54.018;9.300;2023-06-04T15:10:34;29.20;37.60
31046;DHT22;17711;54.018;9.300;2023-06-04T15:13:03;28.90;38.60
31046;DHT22;17711;54.018;9.300;2023-06-04T15:15:32;28.60;37.20
31046;DHT22;17711;54.018;9.300;2023-06-04T15:18:00;28.20;39.00
31046;DHT22;17711;54.018;9.300;2023-06-04T15:20:29;28.20;40.20
31046;DHT22;17711;54.018;9.300;2023-06-04T15:22:57;28.10;41.20
31046;DHT22;17711;54.018;9.300;2023-06-04T15:25:29;28.10;42.80
31046;DHT22;17711;54.018;9.300;2023-06-04T15:27:59;28.00;39.10
31046;DHT22;17711;54.018;9.300;2023-06-04T15:30:28;28.00;41.90
31046;DHT22;17711;54.018;9.300;2023-06-04T15:32:56;27.90;37.20
31046;DHT22;17711;54.018;9.300;2023-06-04T15:35:27;27.40;39.50
31046;DHT22;17711;54.018;9.300;2023-06-04T15:37:56;27.50;38.80
31046;DHT22;17711;54.018;9.300;2023-06-04T15:40:28;27.30;38.10
31046;DHT22;17711;54.018;9.300;2023-06-04T15:42:58;27.20;41.60
31046;DHT22;17711;54.018;9.300;2023-06-04T15:45:29;26.90;41.60
31046;DHT22;17711;54.018;9.300;2023-06-04T15:48:01;26.70;43.90
31046;DHT22;17711;54.018;9.300;2023-06-04T15:50:30;26.80;46.60
31046;DHT22;17711;54.018;9.300;2023-06-04T15:53:01;26.90;51.00
31046;DHT22;17711;54.018;9.300;2023-06-04T15:55:36;26.80;45.90